sensor_id;sensor_type;location;lat;lon;timestamp;P1;durP1;ratioP1;P2;durP2;ratioP2
24617;SDS011;12762;51.730;5.356;2022-09-21T00:01:21;6.37;;;2.40;;
24617;SDS011;12762;51.730;5.356;2022-09-21T00:03:54;5.77;;;2.40;;
24617;SDS011;12762;51.730;5.356;2022-09-21T00:06:26;5.07;;;1.97;;
24617;SDS011;12762;51.730;5.356;2022-09-21T00:08:54;7.00;;;2.67;;
24617;SDS011;12762;51.730;5.356;2022-09-21T00:11:26;5.90;;;2.20;;
24617;SDS011;12762;51.730;5.356;2022-09-21T00:13:56;9.80;;;2.60;;
24617;SDS011;12762;51.730;5.356;2022-09-21T00:16:30;5.07;;;2.40;;
24617;SDS011;12762;51.730;5.356;2022-09-21T00:18:57;5.77;;;2.33;;
24617;SDS011;12762;51.730;5.356;2022-09-21T00:21:25;7.80;;;2.90;;
24617;SDS011;12762;51.730;5.356;2022-09-21T00:23:53;3.97;;;2.00;;
24617;SDS011;12762;51.730;5.356;2022-09-21T00:26:21;5.33;;;2.53;;
24617;SDS011;12762;51.730;5.356;2022-09-21T00:28:54;5.23;;;2.80;;
24617;SDS011;12762;51.730;5.356;2022-09-21T00:31:22;4.07;;;2.47;;
24617;SDS011;12762;51.730;5.356;2022-09-21T00:33:53;8.60;;;2.70;;
24617;SDS011;12762;51.730;5.356;2022-09-21T00:36:23;5.93;;;2.63;;
24617;SDS011;12762;51.730;5.356;2022-09-21T00:38:51;7.27;;;3.00;;
24617;SDS011;12762;51.730;5.356;2022-09-21T00:41:22;7.50;;;2.90;;
24617;SDS011;12762;51.730;5.356;2022-09-21T00:44:36;5.83;;;2.20;;
24617;SDS011;12762;51.730;5.356;2022-09-21T00:46:50;9.97;;;3.03;;
24617;SDS011;12762;51.730;5.356;2022-09-21T00:49:18;7.03;;;2.87;;
24617;SDS011;12762;51.730;5.356;2022-09-21T00:51:47;7.93;;;3.27;;
24617;SDS011;12762;51.730;5.356;2022-09-21T00:54:25;8.77;;;2.70;;
24617;SDS011;12762;51.730;5.356;2022-09-21T00:56:58;6.27;;;2.87;;
24617;SDS011;12762;51.730;5.356;2022-09-21T00:59:26;5.57;;;2.50;;
24617;SDS011;12762;51.730;5.356;2022-09-21T01:01:57;10.10;;;2.87;;
24617;SDS011;12762;51.730;5.356;2022-09-21T01:04:25;6.63;;;2.73;;
24617;SDS011;12762;51.730;5.356;2022-09-21T01:06:54;4.33;;;2.23;;
24617;SDS011;12762;51.730;5.356;2022-09-21T01:09:23;6.17;;;2.50;;
24617;SDS011;12762;51.730;5.356;2022-09-21T01:14:58;6.77;;;2.60;;
24617;SDS011;12762;51.730;5.356;2022-09-21T01:31:06;6.67;;;2.60;;
24617;SDS011;12762;51.730;5.356;2022-09-21T01:33:42;5.47;;;2.47;;
24617;SDS011;12762;51.730;5.356;2022-09-21T01:36:16;6.57;;;2.80;;
24617;SDS011;12762;51.730;5.356;2022-09-21T01:39:01;5.60;;;2.17;;
24617;SDS011;12762;51.730;5.356;2022-09-21T01:41:37;7.03;;;2.20;;
24617;SDS011;12762;51.730;5.356;2022-09-21T01:44:09;5.33;;;2.53;;
24617;SDS011;12762;51.730;5.356;2022-09-21T01:46:45;8.00;;;3.40;;
24617;SDS011;12762;51.730;5.356;2022-09-21T01:49:23;8.43;;;3.00;;
24617;SDS011;12762;51.730;5.356;2022-09-21T01:52:05;4.67;;;2.60;;
24617;SDS011;12762;51.730;5.356;2022-09-21T01:54:39;5.17;;;2.53;;
24617;SDS011;12762;51.730;5.356;2022-09-21T01:57:29;8.10;;;2.70;;
24617;SDS011;12762;51.730;5.356;2022-09-21T02:00:08;5.00;;;2.47;;
24617;SDS011;12762;51.730;5.356;2022-09-21T02:02:37;7.33;;;2.63;;
24617;SDS011;12762;51.730;5.356;2022-09-21T02:05:25;4.73;;;2.70;;
24617;SDS011;12762;51.730;5.356;2022-09-21T02:07:56;5.17;;;2.03;;
24617;SDS011;12762;51.730;5.356;2022-09-21T02:13:01;5.70;;;2.97;;
24617;SDS011;12762;51.730;5.356;2022-09-21T02:15:36;5.97;;;2.37;;
24617;SDS011;12762;51.730;5.356;2022-09-21T02:18:36;5.20;;;2.63;;
24617;SDS011;12762;51.730;5.356;2022-09-21T02:21:32;4.77;;;2.77;;
24617;SDS011;12762;51.730;5.356;2022-09-21T02:32:37;9.00;;;3.27;;
24617;SDS011;12762;51.730;5.356;2022-09-21T02:35:12;7.67;;;2.93;;
24617;SDS011;12762;51.730;5.356;2022-09-21T02:38:13;4.63;;;2.77;;
24617;SDS011;12762;51.730;5.356;2022-09-21T02:41:03;4.87;;;2.90;;
24617;SDS011;12762;51.730;5.356;2022-09-21T02:46:42;5.73;;;2.20;;
24617;SDS011;12762;51.730;5.356;2022-09-21T02:49:21;6.43;;;2.30;;
24617;SDS011;12762;51.730;5.356;2022-09-21T02:52:13;5.83;;;3.60;;
24617;SDS011;12762;51.730;5.356;2022-09-21T02:54:42;8.63;;;3.20;;
24617;SDS011;12762;51.730;5.356;2022-09-21T02:57:13;5.33;;;2.40;;
24617;SDS011;12762;51.730;5.356;2022-09-21T02:59:43;7.10;;;2.97;;
24617;SDS011;12762;51.730;5.356;2022-09-21T03:02:10;6.13;;;2.90;;
24617;SDS011;12762;51.730;5.356;2022-09-21T03:04:38;6.70;;;2.80;;
24617;SDS011;12762;51.730;5.356;2022-09-21T03:07:07;7.03;;;3.07;;
24617;SDS011;12762;51.730;5.356;2022-09-21T03:09:34;4.60;;;2.43;;
24617;SDS011;12762;51.730;5.356;2022-09-21T03:12:01;4.80;;;2.17;;
24617;SDS011;12762;51.730;5.356;2022-09-21T03:14:31;6.20;;;2.30;;
24617;SDS011;12762;51.730;5.356;2022-09-21T03:16:58;7.80;;;2.60;;
24617;SDS011;12762;51.730;5.356;2022-09-21T03:19:25;8.53;;;2.93;;
24617;SDS011;12762;51.730;5.356;2022-09-21T03:21:56;3.83;;;2.40;;
24617;SDS011;12762;51.730;5.356;2022-09-21T03:24:23;5.67;;;2.90;;
24617;SDS011;12762;51.730;5.356;2022-09-21T03:27:08;6.23;;;3.17;;
24617;SDS011;12762;51.730;5.356;2022-09-21T03:29:35;5.60;;;2.40;;
24617;SDS011;12762;51.730;5.356;2022-09-21T03:32:02;5.20;;;2.60;;
24617;SDS011;12762;51.730;5.356;2022-09-21T03:34:29;7.33;;;2.90;;
24617;SDS011;12762;51.730;5.356;2022-09-21T03:36:56;4.83;;;2.70;;
24617;SDS011;12762;51.730;5.356;2022-09-21T03:39:23;8.47;;;3.00;;
24617;SDS011;12762;51.730;5.356;2022-09-21T03:41:52;9.63;;;3.37;;
24617;SDS011;12762;51.730;5.356;2022-09-21T03:44:24;6.33;;;2.80;;
24617;SDS011;12762;51.730;5.356;2022-09-21T03:46:52;6.00;;;3.17;;
24617;SDS011;12762;51.730;5.356;2022-09-21T03:49:21;10.00;;;3.50;;
24617;SDS011;12762;51.730;5.356;2022-09-21T03:51:47;6.17;;;2.87;;
24617;SDS011;12762;51.730;5.356;2022-09-21T03:54:14;5.83;;;2.80;;
24617;SDS011;12762;51.730;5.356;2022-09-21T03:56:41;5.87;;;2.97;;
24617;SDS011;12762;51.730;5.356;2022-09-21T03:59:10;4.03;;;2.20;;
24617;SDS011;12762;51.730;5.356;2022-09-21T04:01:39;7.13;;;3.30;;
24617;SDS011;12762;51.730;5.356;2022-09-21T04:04:09;7.27;;;2.47;;
24617;SDS011;12762;51.730;5.356;2022-09-21T04:06:36;7.43;;;3.23;;
24617;SDS011;12762;51.730;5.356;2022-09-21T04:09:02;8.53;;;3.40;;
24617;SDS011;12762;51.730;5.356;2022-09-21T04:11:29;4.83;;;2.30;;
24617;SDS011;12762;51.730;5.356;2022-09-21T04:13:58;4.20;;;2.87;;
24617;SDS011;12762;51.730;5.356;2022-09-21T04:16:25;7.53;;;2.97;;
24617;SDS011;12762;51.730;5.356;2022-09-21T04:18:55;5.83;;;2.67;;
24617;SDS011;12762;51.730;5.356;2022-09-21T04:21:25;6.60;;;2.90;;
24617;SDS011;12762;51.730;5.356;2022-09-21T04:23:52;5.67;;;2.83;;
24617;SDS011;12762;51.730;5.356;2022-09-21T04:26:26;5.40;;;3.07;;
24617;SDS011;12762;51.730;5.356;2022-09-21T04:28:55;8.13;;;3.70;;
24617;SDS011;12762;51.730;5.356;2022-09-21T04:31:23;7.87;;;2.83;;
24617;SDS011;12762;51.730;5.356;2022-09-21T04:33:51;5.07;;;2.50;;
24617;SDS011;12762;51.730;5.356;2022-09-21T04:36:20;7.07;;;3.57;;
24617;SDS011;12762;51.730;5.356;2022-09-21T04:38:49;7.00;;;3.30;;
24617;SDS011;12762;51.730;5.356;2022-09-21T04:41:16;8.93;;;3.80;;
24617;SDS011;12762;51.730;5.356;2022-09-21T04:43:44;9.97;;;3.13;;
24617;SDS011;12762;51.730;5.356;2022-09-21T04:46:16;5.80;;;3.30;;
24617;SDS011;12762;51.730;5.356;2022-09-21T04:48:44;6.93;;;3.20;;
24617;SDS011;12762;51.730;5.356;2022-09-21T04:51:12;10.47;;;3.00;;
24617;SDS011;12762;51.730;5.356;2022-09-21T04:53:41;4.63;;;2.00;;
24617;SDS011;12762;51.730;5.356;2022-09-21T04:56:09;6.80;;;3.43;;
24617;SDS011;12762;51.730;5.356;2022-09-21T04:58:39;5.27;;;2.53;;
24617;SDS011;12762;51.730;5.356;2022-09-21T05:01:06;6.37;;;3.43;;
24617;SDS011;12762;51.730;5.356;2022-09-21T05:03:40;4.43;;;2.93;;
24617;SDS011;12762;51.730;5.356;2022-09-21T05:06:07;6.23;;;2.67;;
24617;SDS011;12762;51.730;5.356;2022-09-21T05:08:37;5.20;;;3.17;;
24617;SDS011;12762;51.730;5.356;2022-09-21T05:11:23;5.37;;;3.13;;
24617;SDS011;12762;51.730;5.356;2022-09-21T05:13:50;6.57;;;3.27;;
24617;SDS011;12762;51.730;5.356;2022-09-21T05:16:17;5.40;;;2.40;;
24617;SDS011;12762;51.730;5.356;2022-09-21T05:18:44;6.80;;;3.07;;
24617;SDS011;12762;51.730;5.356;2022-09-21T05:21:13;6.57;;;2.60;;
24617;SDS011;12762;51.730;5.356;2022-09-21T05:23:42;5.97;;;2.50;;
24617;SDS011;12762;51.730;5.356;2022-09-21T05:26:09;7.43;;;3.07;;
24617;SDS011;12762;51.730;5.356;2022-09-21T05:28:36;6.37;;;3.47;;
24617;SDS011;12762;51.730;5.356;2022-09-21T05:33:46;7.13;;;3.23;;
24617;SDS011;12762;51.730;5.356;2022-09-21T05:39:05;9.20;;;2.73;;
24617;SDS011;12762;51.730;5.356;2022-09-21T05:41:33;8.23;;;2.80;;
24617;SDS011;12762;51.730;5.356;2022-09-21T05:44:00;10.70;;;3.73;;
24617;SDS011;12762;51.730;5.356;2022-09-21T05:49:19;5.13;;;3.03;;
24617;SDS011;12762;51.730;5.356;2022-09-21T05:52:02;7.73;;;3.33;;
24617;SDS011;12762;51.730;5.356;2022-09-21T05:57:59;10.70;;;5.20;;
24617;SDS011;12762;51.730;5.356;2022-09-21T06:00:23;7.17;;;4.20;;
24617;SDS011;12762;51.730;5.356;2022-09-21T06:03:01;10.30;;;4.23;;
24617;SDS011;12762;51.730;5.356;2022-09-21T06:05:49;9.90;;;4.73;;
24617;SDS011;12762;51.730;5.356;2022-09-21T06:08:16;12.93;;;5.57;;
24617;SDS011;12762;51.730;5.356;2022-09-21T06:10:43;11.77;;;5.47;;
24617;SDS011;12762;51.730;5.356;2022-09-21T06:13:10;12.13;;;5.07;;
24617;SDS011;12762;51.730;5.356;2022-09-21T06:15:37;12.57;;;5.20;;
24617;SDS011;12762;51.730;5.356;2022-09-21T06:18:04;9.17;;;5.23;;
24617;SDS011;12762;51.730;5.356;2022-09-21T06:20:32;13.53;;;6.37;;
24617;SDS011;12762;51.730;5.356;2022-09-21T06:23:02;11.47;;;6.03;;
24617;SDS011;12762;51.730;5.356;2022-09-21T06:25:33;14.20;;;7.00;;
24617;SDS011;12762;51.730;5.356;2022-09-21T06:28:07;13.13;;;5.73;;
24617;SDS011;12762;51.730;5.356;2022-09-21T06:30:36;19.00;;;6.73;;
24617;SDS011;12762;51.730;5.356;2022-09-21T06:33:04;14.30;;;6.87;;
24617;SDS011;12762;51.730;5.356;2022-09-21T06:35:33;17.20;;;7.30;;
24617;SDS011;12762;51.730;5.356;2022-09-21T06:38:04;14.87;;;7.13;;
24617;SDS011;12762;51.730;5.356;2022-09-21T06:40:33;17.20;;;6.80;;
24617;SDS011;12762;51.730;5.356;2022-09-21T06:43:01;15.43;;;6.70;;
24617;SDS011;12762;51.730;5.356;2022-09-21T06:45:29;16.50;;;6.70;;
24617;SDS011;12762;51.730;5.356;2022-09-21T06:47:56;12.63;;;6.30;;
24617;SDS011;12762;51.730;5.356;2022-09-21T06:50:25;15.67;;;6.30;;
24617;SDS011;12762;51.730;5.356;2022-09-21T06:52:52;16.77;;;5.90;;
24617;SDS011;12762;51.730;5.356;2022-09-21T06:55:19;15.10;;;6.80;;
24617;SDS011;12762;51.730;5.356;2022-09-21T06:57:46;13.63;;;6.17;;
24617;SDS011;12762;51.730;5.356;2022-09-21T07:00:13;13.07;;;6.17;;
24617;SDS011;12762;51.730;5.356;2022-09-21T07:02:43;15.27;;;5.73;;
24617;SDS011;12762;51.730;5.356;2022-09-21T07:05:13;10.47;;;5.03;;
24617;SDS011;12762;51.730;5.356;2022-09-21T07:07:40;11.63;;;5.27;;
24617;SDS011;12762;51.730;5.356;2022-09-21T07:10:07;11.17;;;5.17;;
24617;SDS011;12762;51.730;5.356;2022-09-21T07:12:41;11.87;;;4.83;;
24617;SDS011;12762;51.730;5.356;2022-09-21T07:15:09;10.57;;;4.13;;
24617;SDS011;12762;51.730;5.356;2022-09-21T07:17:36;8.03;;;3.73;;
24617;SDS011;12762;51.730;5.356;2022-09-21T07:20:04;8.03;;;3.60;;
24617;SDS011;12762;51.730;5.356;2022-09-21T07:22:33;10.50;;;4.27;;
24617;SDS011;12762;51.730;5.356;2022-09-21T07:25:01;8.03;;;3.27;;
24617;SDS011;12762;51.730;5.356;2022-09-21T07:27:29;8.63;;;3.70;;
24617;SDS011;12762;51.730;5.356;2022-09-21T07:29:57;14.73;;;3.87;;
24617;SDS011;12762;51.730;5.356;2022-09-21T07:32:24;9.77;;;3.40;;
24617;SDS011;12762;51.730;5.356;2022-09-21T07:34:51;6.90;;;3.13;;
24617;SDS011;12762;51.730;5.356;2022-09-21T07:37:24;8.93;;;3.17;;
24617;SDS011;12762;51.730;5.356;2022-09-21T07:39:52;13.77;;;3.63;;
24617;SDS011;12762;51.730;5.356;2022-09-21T07:42:20;10.00;;;3.60;;
24617;SDS011;12762;51.730;5.356;2022-09-21T07:44:48;10.73;;;4.20;;
24617;SDS011;12762;51.730;5.356;2022-09-21T07:47:16;7.97;;;3.27;;
24617;SDS011;12762;51.730;5.356;2022-09-21T07:49:43;8.43;;;3.43;;
24617;SDS011;12762;51.730;5.356;2022-09-21T07:52:12;8.63;;;2.87;;
24617;SDS011;12762;51.730;5.356;2022-09-21T07:54:41;6.03;;;2.70;;
24617;SDS011;12762;51.730;5.356;2022-09-21T07:57:08;8.03;;;2.87;;
24617;SDS011;12762;51.730;5.356;2022-09-21T07:59:53;7.23;;;2.60;;
24617;SDS011;12762;51.730;5.356;2022-09-21T08:02:24;8.00;;;2.50;;
24617;SDS011;12762;51.730;5.356;2022-09-21T08:04:53;6.27;;;2.13;;
24617;SDS011;12762;51.730;5.356;2022-09-21T08:07:20;6.23;;;2.00;;
24617;SDS011;12762;51.730;5.356;2022-09-21T08:09:50;8.60;;;2.37;;
24617;SDS011;12762;51.730;5.356;2022-09-21T08:12:16;3.97;;;2.10;;
24617;SDS011;12762;51.730;5.356;2022-09-21T08:14:46;7.07;;;1.73;;
24617;SDS011;12762;51.730;5.356;2022-09-21T08:17:13;6.47;;;2.13;;
24617;SDS011;12762;51.730;5.356;2022-09-21T08:19:40;4.57;;;1.80;;
24617;SDS011;12762;51.730;5.356;2022-09-21T08:22:07;5.87;;;2.07;;
24617;SDS011;12762;51.730;5.356;2022-09-21T08:24:33;7.30;;;2.13;;
24617;SDS011;12762;51.730;5.356;2022-09-21T08:27:00;3.60;;;1.50;;
24617;SDS011;12762;51.730;5.356;2022-09-21T08:29:27;14.77;;;2.10;;
24617;SDS011;12762;51.730;5.356;2022-09-21T08:31:55;6.17;;;2.07;;
24617;SDS011;12762;51.730;5.356;2022-09-21T08:34:22;7.03;;;1.93;;
24617;SDS011;12762;51.730;5.356;2022-09-21T08:36:49;6.60;;;1.83;;
24617;SDS011;12762;51.730;5.356;2022-09-21T08:39:21;9.50;;;2.10;;
24617;SDS011;12762;51.730;5.356;2022-09-21T08:49:52;8.90;;;2.43;;
24617;SDS011;12762;51.730;5.356;2022-09-21T08:52:22;17.43;;;2.07;;
24617;SDS011;12762;51.730;5.356;2022-09-21T08:54:56;5.07;;;1.83;;
24617;SDS011;12762;51.730;5.356;2022-09-21T08:57:29;6.10;;;1.63;;
24617;SDS011;12762;51.730;5.356;2022-09-21T08:59:58;8.43;;;1.97;;
24617;SDS011;12762;51.730;5.356;2022-09-21T09:05:45;8.53;;;1.80;;
24617;SDS011;12762;51.730;5.356;2022-09-21T09:22:34;4.53;;;1.30;;
24617;SDS011;12762;51.730;5.356;2022-09-21T09:25:11;5.70;;;1.33;;
24617;SDS011;12762;51.730;5.356;2022-09-21T09:27:44;3.60;;;0.83;;
24617;SDS011;12762;51.730;5.356;2022-09-21T09:30:20;5.80;;;1.27;;
24617;SDS011;12762;51.730;5.356;2022-09-21T09:32:59;4.03;;;1.20;;
24617;SDS011;12762;51.730;5.356;2022-09-21T09:38:37;2.10;;;0.50;;
24617;SDS011;12762;51.730;5.356;2022-09-21T09:41:14;5.97;;;0.90;;
24617;SDS011;12762;51.730;5.356;2022-09-21T09:49:35;5.97;;;1.20;;
24617;SDS011;12762;51.730;5.356;2022-09-21T09:52:22;4.67;;;1.07;;
24617;SDS011;12762;51.730;5.356;2022-09-21T09:54:49;3.73;;;1.00;;
24617;SDS011;12762;51.730;5.356;2022-09-21T09:57:19;2.77;;;0.90;;
24617;SDS011;12762;51.730;5.356;2022-09-21T09:59:57;2.27;;;0.70;;
24617;SDS011;12762;51.730;5.356;2022-09-21T10:02:27;4.87;;;1.03;;
24617;SDS011;12762;51.730;5.356;2022-09-21T10:07:39;5.60;;;1.27;;
24617;SDS011;12762;51.730;5.356;2022-09-21T10:12:54;4.17;;;0.73;;
24617;SDS011;12762;51.730;5.356;2022-09-21T10:15:29;5.00;;;0.80;;
24617;SDS011;12762;51.730;5.356;2022-09-21T10:18:06;2.47;;;0.70;;
24617;SDS011;12762;51.730;5.356;2022-09-21T10:20:52;5.97;;;0.80;;
24617;SDS011;12762;51.730;5.356;2022-09-21T10:23:22;3.77;;;0.63;;
24617;SDS011;12762;51.730;5.356;2022-09-21T10:25:57;6.13;;;1.20;;
24617;SDS011;12762;51.730;5.356;2022-09-21T10:28:30;3.57;;;0.73;;
24617;SDS011;12762;51.730;5.356;2022-09-21T10:31:06;6.27;;;0.97;;
24617;SDS011;12762;51.730;5.356;2022-09-21T10:34:10;3.93;;;0.90;;
24617;SDS011;12762;51.730;5.356;2022-09-21T10:36:39;4.80;;;1.07;;
24617;SDS011;12762;51.730;5.356;2022-09-21T10:39:09;3.67;;;0.70;;
24617;SDS011;12762;51.730;5.356;2022-09-21T10:41:55;3.83;;;0.90;;
24617;SDS011;12762;51.730;5.356;2022-09-21T10:47:16;2.13;;;0.77;;
24617;SDS011;12762;51.730;5.356;2022-09-21T10:49:57;4.70;;;0.93;;
24617;SDS011;12762;51.730;5.356;2022-09-21T10:52:32;4.03;;;0.70;;
24617;SDS011;12762;51.730;5.356;2022-09-21T10:55:05;2.27;;;0.63;;
24617;SDS011;12762;51.730;5.356;2022-09-21T10:57:40;5.37;;;0.70;;
24617;SDS011;12762;51.730;5.356;2022-09-21T11:00:24;3.43;;;0.80;;
24617;SDS011;12762;51.730;5.356;2022-09-21T11:03:23;4.20;;;0.80;;
24617;SDS011;12762;51.730;5.356;2022-09-21T11:05:57;2.37;;;0.57;;
24617;SDS011;12762;51.730;5.356;2022-09-21T11:08:51;1.57;;;0.47;;
24617;SDS011;12762;51.730;5.356;2022-09-21T11:17:14;2.43;;;0.60;;
24617;SDS011;12762;51.730;5.356;2022-09-21T11:19:53;3.80;;;0.50;;
24617;SDS011;12762;51.730;5.356;2022-09-21T11:25:25;2.83;;;0.70;;
24617;SDS011;12762;51.730;5.356;2022-09-21T11:28:01;3.83;;;0.70;;
24617;SDS011;12762;51.730;5.356;2022-09-21T11:30:48;1.87;;;0.63;;
24617;SDS011;12762;51.730;5.356;2022-09-21T11:36:10;4.83;;;0.97;;
24617;SDS011;12762;51.730;5.356;2022-09-21T11:38:55;5.43;;;0.70;;
24617;SDS011;12762;51.730;5.356;2022-09-21T11:41:49;5.17;;;1.17;;
24617;SDS011;12762;51.730;5.356;2022-09-21T11:45:00;2.80;;;0.60;;
24617;SDS011;12762;51.730;5.356;2022-09-21T11:56:08;3.13;;;0.47;;
24617;SDS011;12762;51.730;5.356;2022-09-21T12:01:45;3.10;;;0.53;;
24617;SDS011;12762;51.730;5.356;2022-09-21T12:04:39;3.33;;;0.50;;
24617;SDS011;12762;51.730;5.356;2022-09-21T12:13:15;3.47;;;0.60;;
24617;SDS011;12762;51.730;5.356;2022-09-21T12:15:57;1.50;;;0.60;;
24617;SDS011;12762;51.730;5.356;2022-09-21T12:18:47;4.23;;;0.57;;
24617;SDS011;12762;51.730;5.356;2022-09-21T12:21:24;4.17;;;0.60;;
24617;SDS011;12762;51.730;5.356;2022-09-21T12:24:17;2.77;;;0.77;;
24617;SDS011;12762;51.730;5.356;2022-09-21T12:26:58;3.17;;;0.77;;
24617;SDS011;12762;51.730;5.356;2022-09-21T12:29:37;4.13;;;0.70;;
24617;SDS011;12762;51.730;5.356;2022-09-21T12:35:02;4.53;;;0.80;;
24617;SDS011;12762;51.730;5.356;2022-09-21T12:37:37;4.60;;;0.83;;
24617;SDS011;12762;51.730;5.356;2022-09-21T12:40:21;3.27;;;0.67;;
24617;SDS011;12762;51.730;5.356;2022-09-21T12:42:57;4.07;;;0.70;;
24617;SDS011;12762;51.730;5.356;2022-09-21T12:45:47;5.63;;;0.60;;
24617;SDS011;12762;51.730;5.356;2022-09-21T12:48:24;6.13;;;2.10;;
24617;SDS011;12762;51.730;5.356;2022-09-21T12:51:13;5.27;;;1.00;;
24617;SDS011;12762;51.730;5.356;2022-09-21T12:54:23;3.33;;;0.90;;
24617;SDS011;12762;51.730;5.356;2022-09-21T12:57:09;2.77;;;0.60;;
24617;SDS011;12762;51.730;5.356;2022-09-21T13:00:25;2.38;;;0.60;;
24617;SDS011;12762;51.730;5.356;2022-09-21T13:03:15;5.13;;;1.08;;
24617;SDS011;12762;51.730;5.356;2022-09-21T13:09:01;3.90;;;0.80;;
24617;SDS011;12762;51.730;5.356;2022-09-21T13:11:33;4.53;;;0.90;;
24617;SDS011;12762;51.730;5.356;2022-09-21T13:14:15;3.47;;;0.70;;
24617;SDS011;12762;51.730;5.356;2022-09-21T13:16:43;3.63;;;1.00;;
24617;SDS011;12762;51.730;5.356;2022-09-21T13:19:24;3.87;;;0.50;;
24617;SDS011;12762;51.730;5.356;2022-09-21T13:22:19;2.97;;;0.70;;
24617;SDS011;12762;51.730;5.356;2022-09-21T13:27:54;6.17;;;0.90;;
24617;SDS011;12762;51.730;5.356;2022-09-21T13:30:42;6.57;;;0.60;;
24617;SDS011;12762;51.730;5.356;2022-09-21T13:38:32;4.20;;;1.00;;
24617;SDS011;12762;51.730;5.356;2022-09-21T13:43:44;6.03;;;0.90;;
24617;SDS011;12762;51.730;5.356;2022-09-21T13:47:02;6.30;;;0.83;;
24617;SDS011;12762;51.730;5.356;2022-09-21T13:49:14;7.63;;;1.40;;
24617;SDS011;12762;51.730;5.356;2022-09-21T13:52:47;4.77;;;0.90;;
24617;SDS011;12762;51.730;5.356;2022-09-21T13:57:30;2.30;;;0.70;;
24617;SDS011;12762;51.730;5.356;2022-09-21T14:07:57;4.30;;;0.70;;
24617;SDS011;12762;51.730;5.356;2022-09-21T14:10:27;2.60;;;0.80;;
24617;SDS011;12762;51.730;5.356;2022-09-21T14:12:57;4.53;;;0.83;;
24617;SDS011;12762;51.730;5.356;2022-09-21T14:15:30;3.93;;;0.63;;
24617;SDS011;12762;51.730;5.356;2022-09-21T14:26:35;2.50;;;0.70;;
24617;SDS011;12762;51.730;5.356;2022-09-21T14:31:51;0.90;;;0.60;;
24617;SDS011;12762;51.730;5.356;2022-09-21T14:34:26;1.83;;;0.70;;
24617;SDS011;12762;51.730;5.356;2022-09-21T14:37:02;4.23;;;0.77;;
24617;SDS011;12762;51.730;5.356;2022-09-21T14:39:40;2.53;;;0.70;;
24617;SDS011;12762;51.730;5.356;2022-09-21T14:42:20;4.67;;;0.90;;
24617;SDS011;12762;51.730;5.356;2022-09-21T14:44:57;2.13;;;0.63;;
24617;SDS011;12762;51.730;5.356;2022-09-21T14:47:32;3.73;;;0.67;;
24617;SDS011;12762;51.730;5.356;2022-09-21T15:04:07;1.27;;;0.50;;
24617;SDS011;12762;51.730;5.356;2022-09-21T15:06:46;3.30;;;0.60;;
24617;SDS011;12762;51.730;5.356;2022-09-21T15:18:14;2.37;;;0.77;;
24617;SDS011;12762;51.730;5.356;2022-09-21T15:21:01;3.33;;;0.80;;
24617;SDS011;12762;51.730;5.356;2022-09-21T15:23:30;4.97;;;0.83;;
24617;SDS011;12762;51.730;5.356;2022-09-21T15:26:03;3.37;;;0.73;;
24617;SDS011;12762;51.730;5.356;2022-09-21T15:28:49;1.53;;;0.70;;
24617;SDS011;12762;51.730;5.356;2022-09-21T15:31:39;4.73;;;1.20;;
24617;SDS011;12762;51.730;5.356;2022-09-21T15:34:07;6.40;;;1.00;;
24617;SDS011;12762;51.730;5.356;2022-09-21T15:36:37;3.10;;;0.80;;
24617;SDS011;12762;51.730;5.356;2022-09-21T15:39:14;6.57;;;0.97;;
24617;SDS011;12762;51.730;5.356;2022-09-21T15:44:33;4.13;;;0.97;;
24617;SDS011;12762;51.730;5.356;2022-09-21T15:47:03;4.70;;;0.90;;
24617;SDS011;12762;51.730;5.356;2022-09-21T15:49:34;3.83;;;0.87;;
24617;SDS011;12762;51.730;5.356;2022-09-21T15:52:10;2.60;;;0.90;;
24617;SDS011;12762;51.730;5.356;2022-09-21T15:57:29;2.90;;;0.90;;
24617;SDS011;12762;51.730;5.356;2022-09-21T16:00:26;6.47;;;1.00;;
24617;SDS011;12762;51.730;5.356;2022-09-21T16:03:04;4.23;;;1.20;;
24617;SDS011;12762;51.730;5.356;2022-09-21T16:05:49;2.27;;;0.80;;
24617;SDS011;12762;51.730;5.356;2022-09-21T16:08:20;4.10;;;0.70;;
24617;SDS011;12762;51.730;5.356;2022-09-21T16:11:13;3.30;;;0.90;;
24617;SDS011;12762;51.730;5.356;2022-09-21T16:13:45;7.87;;;1.50;;
24617;SDS011;12762;51.730;5.356;2022-09-21T16:16:31;3.53;;;0.90;;
24617;SDS011;12762;51.730;5.356;2022-09-21T16:18:58;5.70;;;0.83;;
24617;SDS011;12762;51.730;5.356;2022-09-21T16:21:29;4.03;;;0.70;;
24617;SDS011;12762;51.730;5.356;2022-09-21T16:24:08;4.97;;;0.97;;
24617;SDS011;12762;51.730;5.356;2022-09-21T16:26:53;6.23;;;1.00;;
24617;SDS011;12762;51.730;5.356;2022-09-21T16:29:27;4.03;;;0.90;;
24617;SDS011;12762;51.730;5.356;2022-09-21T16:34:43;3.67;;;0.83;;
24617;SDS011;12762;51.730;5.356;2022-09-21T16:39:54;2.60;;;1.10;;
24617;SDS011;12762;51.730;5.356;2022-09-21T16:42:28;3.00;;;1.00;;
24617;SDS011;12762;51.730;5.356;2022-09-21T16:44:58;3.93;;;1.00;;
24617;SDS011;12762;51.730;5.356;2022-09-21T16:47:26;2.73;;;0.80;;
24617;SDS011;12762;51.730;5.356;2022-09-21T16:49:57;1.67;;;0.80;;
24617;SDS011;12762;51.730;5.356;2022-09-21T16:52:28;7.63;;;1.40;;
24617;SDS011;12762;51.730;5.356;2022-09-21T16:54:56;3.20;;;1.17;;
24617;SDS011;12762;51.730;5.356;2022-09-21T16:57:26;2.60;;;1.07;;
24617;SDS011;12762;51.730;5.356;2022-09-21T16:59:53;3.60;;;1.23;;
24617;SDS011;12762;51.730;5.356;2022-09-21T17:02:20;5.13;;;1.00;;
24617;SDS011;12762;51.730;5.356;2022-09-21T17:04:47;5.33;;;1.00;;
24617;SDS011;12762;51.730;5.356;2022-09-21T17:07:14;3.97;;;1.20;;
24617;SDS011;12762;51.730;5.356;2022-09-21T17:09:42;3.43;;;1.13;;
24617;SDS011;12762;51.730;5.356;2022-09-21T17:12:13;6.37;;;1.33;;
24617;SDS011;12762;51.730;5.356;2022-09-21T17:14:42;4.50;;;1.23;;
24617;SDS011;12762;51.730;5.356;2022-09-21T17:17:16;4.70;;;1.33;;
24617;SDS011;12762;51.730;5.356;2022-09-21T17:19:45;6.87;;;1.60;;
24617;SDS011;12762;51.730;5.356;2022-09-21T17:22:15;3.57;;;1.30;;
24617;SDS011;12762;51.730;5.356;2022-09-21T17:24:49;8.57;;;1.10;;
24617;SDS011;12762;51.730;5.356;2022-09-21T17:27:18;3.43;;;1.20;;
24617;SDS011;12762;51.730;5.356;2022-09-21T17:29:47;4.90;;;1.13;;
24617;SDS011;12762;51.730;5.356;2022-09-21T17:32:16;4.03;;;1.50;;
24617;SDS011;12762;51.730;5.356;2022-09-21T17:34:46;5.87;;;1.40;;
24617;SDS011;12762;51.730;5.356;2022-09-21T17:37:23;6.60;;;1.67;;
24617;SDS011;12762;51.730;5.356;2022-09-21T17:39:50;8.47;;;1.40;;
24617;SDS011;12762;51.730;5.356;2022-09-21T17:42:20;6.67;;;1.80;;
24617;SDS011;12762;51.730;5.356;2022-09-21T17:47:32;3.47;;;1.40;;
24617;SDS011;12762;51.730;5.356;2022-09-21T17:52:38;6.90;;;1.90;;
24617;SDS011;12762;51.730;5.356;2022-09-21T17:55:25;4.73;;;1.50;;
24617;SDS011;12762;51.730;5.356;2022-09-21T18:01:00;5.93;;;2.00;;
24617;SDS011;12762;51.730;5.356;2022-09-21T18:03:35;4.10;;;2.07;;
24617;SDS011;12762;51.730;5.356;2022-09-21T18:06:07;4.80;;;1.83;;
24617;SDS011;12762;51.730;5.356;2022-09-21T18:08:35;8.03;;;1.90;;
24617;SDS011;12762;51.730;5.356;2022-09-21T18:11:28;7.93;;;1.60;;
24617;SDS011;12762;51.730;5.356;2022-09-21T18:14:16;5.90;;;2.13;;
24617;SDS011;12762;51.730;5.356;2022-09-21T18:22:29;4.20;;;1.60;;
24617;SDS011;12762;51.730;5.356;2022-09-21T18:25:08;7.63;;;2.63;;
24617;SDS011;12762;51.730;5.356;2022-09-21T18:27:42;7.07;;;1.97;;
24617;SDS011;12762;51.730;5.356;2022-09-21T18:30:13;8.50;;;2.37;;
24617;SDS011;12762;51.730;5.356;2022-09-21T18:32:46;6.00;;;2.03;;
24617;SDS011;12762;51.730;5.356;2022-09-21T18:35:33;4.17;;;1.87;;
24617;SDS011;12762;51.730;5.356;2022-09-21T18:38:16;6.97;;;1.70;;
24617;SDS011;12762;51.730;5.356;2022-09-21T18:41:04;6.07;;;2.43;;
24617;SDS011;12762;51.730;5.356;2022-09-21T18:46:21;8.53;;;2.60;;
24617;SDS011;12762;51.730;5.356;2022-09-21T18:52:02;7.47;;;2.80;;